Wetterdaten: aktuell Mittwoch, 18.09.2019 21:40
Datum Zeit Temp. A. Feuchte A. Luftdruck Regen Wind Richtung Richtung ET Taupunkt Windchill Windben Empfang
18.09.2019 21:40 5,3 C 93 % 1024,1 hPa 0,0 l/m 0,0 km/h (0 Bft) O-SO 111 0,000 mm 4,3 C 5,3 C 0,0 km/h (0 Bft) 100 %
18.09.2019 20:40 5,9 C 91 % 1023,5 hPa 0,0 l/m 0,1 km/h (0 Bft) O-SO 111 0,000 mm 4,5 C 5,9 C 1,6 km/h (1 Bft) 100 %
18.09.2019 19:40 6,9 C 88 % 1022,6 hPa 0,0 l/m 0,0 km/h (0 Bft) O-SO 111 0,000 mm 5,1 C 6,9 C 0,0 km/h (0 Bft) 100 %
18.09.2019 18:40 9,1 C 82 % 1021,8 hPa 0,0 l/m 0,0 km/h (0 Bft) O-SO 109 0,000 mm 6,2 C 9,1 C 0,0 km/h (0 Bft) 100 %
18.09.2019 17:40 10,7 C 78 % 1021,5 hPa 0,0 l/m 0,9 km/h (0 Bft) O-SO 113 0,000 mm 7,0 C 10,7 C 1,6 km/h (1 Bft) 100 %
18.09.2019 16:40 14,7 C 59 % 1021,6 hPa 0,0 l/m 1,9 km/h (1 Bft) O-SO 113 0,000 mm 6,8 C 14,7 C 6,4 km/h (2 Bft) 100 %
18.09.2019 15:40 17,7 C 42 % 1021,8 hPa 0,0 l/m 1,6 km/h (1 Bft) SO 142 0,000 mm 4,6 C 17,7 C 6,4 km/h (2 Bft) 97 %
18.09.2019 14:40 17,8 C 49 % 1021,9 hPa 0,0 l/m 2,3 km/h (1 Bft) SO 143 0,000 mm 6,9 C 17,8 C 8,0 km/h (2 Bft) 100 %
18.09.2019 13:40 17,1 C 51 % 1022,4 hPa 0,0 l/m 3,2 km/h (1 Bft) SO 128 0,000 mm 6,9 C 17,1 C 8,0 km/h (2 Bft) 100 %
18.09.2019 12:40 16,4 C 51 % 1022,8 hPa 0,0 l/m 2,8 km/h (1 Bft) W-NW 285 0,000 mm 6,2 C 16,4 C 9,7 km/h (2 Bft) 88 %
18.09.2019 11:40 15,5 C 58 % 1023,1 hPa 0,0 l/m 1,9 km/h (1 Bft) S 186 0,000 mm 7,3 C 15,5 C 8,0 km/h (2 Bft) 100 %
18.09.2019 10:40 14,1 C 64 % 1023,1 hPa 0,0 l/m 2,8 km/h (1 Bft) W 278 0,000 mm 7,4 C 14,1 C 8,0 km/h (2 Bft) 100 %
18.09.2019 09:40 12,2 C 74 % 1023,3 hPa 0,0 l/m 0,8 km/h (0 Bft) S-SO 165 0,000 mm 7,7 C 12,2 C 3,2 km/h (1 Bft) 100 %
18.09.2019 08:40 11,8 C 73 % 1022,8 hPa 0,0 l/m 2,0 km/h (1 Bft) SO 128 0,000 mm 7,1 C 11,8 C 8,0 km/h (2 Bft) 100 %
18.09.2019 07:40 11,1 C 80 % 1022,2 hPa 0,0 l/m 0,5 km/h (0 Bft) SO 143 0,000 mm 7,8 C 11,1 C 1,6 km/h (1 Bft) 100 %
18.09.2019 06:40 12,2 C 81 % 1021,4 hPa 0,0 l/m 0,1 km/h (0 Bft) SO 143 0,000 mm 9,0 C 12,2 C 1,6 km/h (1 Bft) 100 %
18.09.2019 05:40 12,9 C 75 % 1020,7 hPa 0,0 l/m 0,0 km/h (0 Bft) SO 134 0,000 mm 8,6 C 12,9 C 0,0 km/h (0 Bft) 100 %
18.09.2019 04:40 13,3 C 73 % 1019,8 hPa 0,0 l/m 0,4 km/h (0 Bft) SO 133 0,000 mm 8,6 C 13,3 C 1,6 km/h (1 Bft) 100 %
18.09.2019 03:40 13,8 C 73 % 1019,1 hPa 0,0 l/m 0,1 km/h (0 Bft) SO 124 0,000 mm 9,0 C 13,8 C 3,2 km/h (1 Bft) 100 %
18.09.2019 02:40 14,4 C 70 % 1018,6 hPa 0,0 l/m 2,6 km/h (1 Bft) SO 143 0,000 mm 9,0 C 14,4 C 6,4 km/h (2 Bft) 100 %
18.09.2019 01:40 14,2 C 79 % 1018,4 hPa 0,0 l/m 0,8 km/h (0 Bft) SO 130 0,000 mm 10,6 C 14,2 C 3,2 km/h (1 Bft) 100 %
18.09.2019 00:40 13,3 C 88 % 1017,9 hPa 0,0 l/m 1,2 km/h (1 Bft) O-SO 108 0,000 mm 11,4 C 13,3 C 3,2 km/h (1 Bft) 100 %
18.09.2019 00:00 13,0 C 89 % 1017,6 hPa 0,0 l/m 0,9 km/h (0 Bft) SO 125 0,000 mm 11,2 C 13,0 C 3,2 km/h (1 Bft) 100 %
_ Min-Zeit 21:35 16:05 00:00 - 00:20 - - - 16:05 21:35 00:20 19:05
Minimum _ 5,3 C 37 % 1017,6 hPa - 0,0 km/h (0 Bft) - - - 3,0 C 5,3 C 0,0 km/h (0 Bft) 87 %
_ Max-Zeit 15:50 21:15 21:35 00:00 10:45 - - 00:00 00:45 15:50 02:00 00:00
Maximum _ 18,2 C 93 % 1024,1 hPa 0,0 l/m 5,1 km/h
W-NW (1 Bft)
- - 0,000 mm 11,5 C 18,2 C 14,5 km/h
N (3 Bft)
100 %
Durchschnitt _ 12,9 C 71 % 1021,5 hPa #0,0 l/m 1,2 km/h (1 Bft) O-SO - #0,000 mm 7,3 C 12,9 C 4,2 km/h (1 Bft) 100 %